createdAt,value
2023-03-21T00:00:42.045Z,1.00
2023-03-21T00:03:09.130Z,1.00
2023-03-21T00:05:45.709Z,1.00
2023-03-21T00:08:12.496Z,1.00
2023-03-21T00:10:43.923Z,1.00
2023-03-21T00:13:15.816Z,1.00
2023-03-21T00:16:05.219Z,1.00
2023-03-21T00:18:42.014Z,1.00
2023-03-21T00:24:00.728Z,1.00
2023-03-21T00:26:27.584Z,1.00
2023-03-21T00:28:54.483Z,1.00
2023-03-21T00:31:22.390Z,1.00
2023-03-21T00:33:49.164Z,1.00
2023-03-21T00:36:16.540Z,1.00
2023-03-21T00:38:43.598Z,1.00
2023-03-21T00:41:35.210Z,1.00
2023-03-21T00:44:00.243Z,1.00
2023-03-21T00:46:30.090Z,1.00
2023-03-21T00:49:03.880Z,1.00
2023-03-21T00:51:32.046Z,1.00
2023-03-21T00:53:59.084Z,1.00
2023-03-21T00:56:26.395Z,1.00
2023-03-21T00:58:53.383Z,1.00
2023-03-21T01:01:20.424Z,1.00
2023-03-21T01:03:51.146Z,1.00
2023-03-21T01:06:21.079Z,1.00
2023-03-21T01:08:52.701Z,1.00
2023-03-21T01:11:23.683Z,1.00
2023-03-21T01:13:56.199Z,1.00
2023-03-21T01:16:27.218Z,1.00
2023-03-21T01:18:54.197Z,1.00
2023-03-21T01:21:21.022Z,1.00
2023-03-21T01:23:48.197Z,1.00
2023-03-21T01:26:15.687Z,1.00
2023-03-21T01:28:44.265Z,1.00
2023-03-21T01:31:13.845Z,1.00
2023-03-21T01:33:41.285Z,1.00
2023-03-21T01:36:13.178Z,1.00
2023-03-21T01:38:41.854Z,1.00
2023-03-21T01:41:42.547Z,1.00
2023-03-21T01:44:18.183Z,1.00
2023-03-21T01:47:07.300Z,1.00
2023-03-21T01:49:41.023Z,1.00
2023-03-21T01:52:21.104Z,1.00
2023-03-21T01:54:56.081Z,1.00
2023-03-21T01:57:41.047Z,1.00
2023-03-21T02:00:12.528Z,1.00
2023-03-21T02:02:52.454Z,1.00
2023-03-21T02:05:44.603Z,1.00
2023-03-21T02:08:13.227Z,1.00
2023-03-21T02:10:42.965Z,1.00
2023-03-21T02:13:09.802Z,1.00
2023-03-21T02:15:42.905Z,1.00
2023-03-21T02:18:27.015Z,1.00
2023-03-21T02:20:54.427Z,1.00
2023-03-21T02:23:42.272Z,1.00
2023-03-21T02:26:36.143Z,1.00
2023-03-21T02:29:32.790Z,1.00
2023-03-21T02:32:09.289Z,1.00
2023-03-21T02:34:55.228Z,1.00
2023-03-21T02:37:38.419Z,1.00
2023-03-21T02:40:28.453Z,1.00
2023-03-21T02:43:22.511Z,1.00
2023-03-21T02:46:07.141Z,1.00
2023-03-21T02:48:56.058Z,1.00
2023-03-21T02:51:25.955Z,1.00
2023-03-21T02:54:24.879Z,1.00
2023-03-21T02:56:49.982Z,1.00
2023-03-21T02:59:18.759Z,1.00
2023-03-21T03:01:45.539Z,1.00
2023-03-21T03:04:23.982Z,1.00
2023-03-21T03:07:09.573Z,1.00
2023-03-21T03:10:13.709Z,1.00
2023-03-21T03:13:02.088Z,1.00
2023-03-21T03:15:51.628Z,1.00
2023-03-21T03:18:55.391Z,1.00
2023-03-21T03:21:47.064Z,1.00
2023-03-21T03:24:23.898Z,1.00
2023-03-21T03:27:07.849Z,1.00
2023-03-21T03:29:37.517Z,1.00
2023-03-21T03:32:23.757Z,1.00
2023-03-21T03:34:56.474Z,1.00
2023-03-21T03:37:31.817Z,1.00
2023-03-21T03:40:05.996Z,1.00
2023-03-21T03:42:57.482Z,4.60
2023-03-21T03:45:46.406Z,20.60
2023-03-21T03:48:28.133Z,11.60
2023-03-21T03:51:03.443Z,10.60
2023-03-21T03:53:41.094Z,10.70
2023-03-21T03:56:11.563Z,14.10
2023-03-21T03:58:45.274Z,13.00
2023-03-21T04:01:14.088Z,8.80
2023-03-21T04:03:50.467Z,16.50
2023-03-21T04:06:19.651Z,17.30
2023-03-21T04:08:46.426Z,14.30
2023-03-21T04:11:16.357Z,16.20
2023-03-21T04:13:43.213Z,18.30
2023-03-21T04:16:11.840Z,14.90
2023-03-21T04:18:39.320Z,20.10
2023-03-21T04:21:11.123Z,19.30
2023-03-21T04:23:38.405Z,9.90
2023-03-21T04:26:06.204Z,11.80
2023-03-21T04:28:33.823Z,7.80
2023-03-21T04:31:05.098Z,5.90
2023-03-21T04:33:38.473Z,13.70
2023-03-21T04:36:09.409Z,6.10
2023-03-21T04:38:36.916Z,5.60
2023-03-21T04:41:04.305Z,9.90
2023-03-21T04:43:32.015Z,8.20
2023-03-21T04:45:58.853Z,10.00
2023-03-21T04:48:26.137Z,10.10
2023-03-21T04:50:52.825Z,1.10
2023-03-21T04:53:19.677Z,2.90
2023-03-21T04:55:46.617Z,3.20
2023-03-21T04:58:13.376Z,1.00
2023-03-21T05:00:40.232Z,1.00
2023-03-21T05:03:10.783Z,2.60
2023-03-21T05:05:39.053Z,2.10
2023-03-21T05:08:06.818Z,6.00
2023-03-21T05:10:33.791Z,9.40
2023-03-21T05:13:00.715Z,14.10
2023-03-21T05:15:27.511Z,24.00
2023-03-21T05:17:54.315Z,21.70
2023-03-21T05:20:21.331Z,29.10
2023-03-21T05:22:51.478Z,24.60
2023-03-21T05:25:21.258Z,48.50
2023-03-21T05:27:54.167Z,46.40
2023-03-21T05:30:21.308Z,43.50
2023-03-21T05:32:48.053Z,41.80
2023-03-21T05:35:14.760Z,51.40
2023-03-21T05:37:41.509Z,52.60
2023-03-21T05:40:09.608Z,55.80
2023-03-21T05:42:36.370Z,60.60
2023-03-21T05:45:03.777Z,42.00
2023-03-21T05:47:30.684Z,26.70
2023-03-21T05:49:58.717Z,17.00
2023-03-21T05:52:25.694Z,31.00
2023-03-21T05:54:52.483Z,25.00
2023-03-21T05:57:19.374Z,12.20
2023-03-21T05:59:46.167Z,32.30
2023-03-21T06:02:13.082Z,36.10
2023-03-21T06:04:39.867Z,24.60
2023-03-21T06:07:06.677Z,41.90
2023-03-21T06:09:34.345Z,40.00
2023-03-21T06:12:01.190Z,17.80
2023-03-21T06:14:28.392Z,39.00
2023-03-21T06:16:55.238Z,30.00
2023-03-21T06:19:22.013Z,26.40
2023-03-21T06:21:49.358Z,27.80
2023-03-21T06:24:17.776Z,42.10
2023-03-21T06:26:45.365Z,23.20
2023-03-21T06:29:12.391Z,1.00
2023-03-21T06:31:39.454Z,1.00
2023-03-21T06:34:06.816Z,1.00
2023-03-21T06:36:33.781Z,1.00
2023-03-21T06:39:00.663Z,1.00
2023-03-21T06:41:27.382Z,1.00
2023-03-21T06:43:54.152Z,1.00
2023-03-21T06:46:21.191Z,1.00
2023-03-21T06:48:48.315Z,1.00
2023-03-21T06:51:16.063Z,1.00
2023-03-21T06:53:43.004Z,1.00
2023-03-21T06:56:11.356Z,1.00
2023-03-21T06:58:38.634Z,1.00
2023-03-21T07:01:06.052Z,1.00
2023-03-21T07:03:34.184Z,1.00
2023-03-21T07:06:07.009Z,1.00
2023-03-21T07:08:33.850Z,6.80
2023-03-21T07:11:00.781Z,31.50
2023-03-21T07:13:27.503Z,45.40
2023-03-21T07:15:54.514Z,21.10
2023-03-21T07:18:21.540Z,59.30
2023-03-21T07:20:51.037Z,99.90
2023-03-21T07:23:23.315Z,99.90
2023-03-21T07:25:51.315Z,99.90
2023-03-21T07:28:18.668Z,99.90
2023-03-21T07:30:46.231Z,99.90
2023-03-21T07:33:12.999Z,99.90
2023-03-21T07:35:40.068Z,1.00
2023-03-21T07:38:07.327Z,1.00
2023-03-21T07:40:34.245Z,1.00
2023-03-21T07:45:32.754Z,1.00
2023-03-21T07:47:59.462Z,4.40
2023-03-21T07:50:26.285Z,1.00
2023-03-21T07:52:54.027Z,5.40
2023-03-21T07:55:21.061Z,99.90
2023-03-21T07:57:51.573Z,99.90
2023-03-21T08:00:23.175Z,1.00
2023-03-21T08:02:57.185Z,1.00
2023-03-21T08:05:31.301Z,1.00
2023-03-21T08:07:58.019Z,1.00
2023-03-21T08:10:25.109Z,1.00
2023-03-21T08:12:52.243Z,99.90
2023-03-21T08:15:19.393Z,20.30
2023-03-21T08:17:46.403Z,99.90
2023-03-21T08:20:17.415Z,1.00
2023-03-21T08:22:44.664Z,99.90
2023-03-21T08:25:13.988Z,1.00
2023-03-21T08:27:42.139Z,1.00
2023-03-21T08:30:13.864Z,1.00
2023-03-21T08:32:42.259Z,1.00
2023-03-21T08:35:11.454Z,99.90
2023-03-21T08:37:39.713Z,99.90
2023-03-21T08:40:11.303Z,1.00
2023-03-21T08:42:38.687Z,99.90
2023-03-21T08:45:06.380Z,99.90
2023-03-21T08:47:33.347Z,99.90
2023-03-21T08:50:00.259Z,1.00
2023-03-21T08:52:27.629Z,21.90
2023-03-21T08:54:55.231Z,1.00
2023-03-21T08:57:21.955Z,99.90
2023-03-21T08:59:48.824Z,1.00
2023-03-21T09:02:17.126Z,1.00
2023-03-21T09:04:44.746Z,99.90
2023-03-21T09:07:16.996Z,1.00
2023-03-21T09:09:44.637Z,99.90
2023-03-21T09:12:11.384Z,99.90
2023-03-21T09:14:38.210Z,99.90
2023-03-21T09:17:04.975Z,99.90
2023-03-21T09:19:31.926Z,99.90
2023-03-21T09:21:59.782Z,99.90
2023-03-21T09:24:26.637Z,38.90
2023-03-21T09:26:53.455Z,1.00
2023-03-21T09:29:21.392Z,99.90
2023-03-21T09:31:48.331Z,1.00
2023-03-21T09:34:15.711Z,99.90
2023-03-21T09:36:44.360Z,1.00
2023-03-21T09:39:12.746Z,1.00
2023-03-21T09:42:09.304Z,99.90
2023-03-21T09:45:02.206Z,1.00
2023-03-21T09:47:37.708Z,99.90
2023-03-21T09:50:17.095Z,1.00
2023-03-21T09:52:48.085Z,1.00
2023-03-21T09:55:22.591Z,1.00
2023-03-21T09:57:59.532Z,1.00
2023-03-21T10:00:35.233Z,99.90
2023-03-21T10:03:06.837Z,1.00
2023-03-21T10:05:39.269Z,72.50
2023-03-21T10:08:09.930Z,21.80
2023-03-21T10:10:45.484Z,1.00
2023-03-21T10:13:21.029Z,99.90
2023-03-21T10:15:48.039Z,99.90
2023-03-21T10:18:24.802Z,99.90
2023-03-21T10:20:52.581Z,24.40
2023-03-21T10:23:22.056Z,1.00
2023-03-21T10:25:59.448Z,99.90
2023-03-21T10:28:36.635Z,1.00
2023-03-21T10:31:09.509Z,1.00
2023-03-21T10:33:39.524Z,1.00
2023-03-21T10:36:10.593Z,1.00
2023-03-21T10:38:41.719Z,1.00
2023-03-21T10:41:10.012Z,37.40
2023-03-21T10:43:40.956Z,1.00
2023-03-21T10:46:21.117Z,99.90
2023-03-21T10:48:53.049Z,99.90
2023-03-21T10:51:29.047Z,99.90
2023-03-21T10:54:01.464Z,99.90
2023-03-21T10:56:31.058Z,11.70
2023-03-21T10:59:02.383Z,1.00
2023-03-21T11:01:31.943Z,1.00
2023-03-21T11:04:01.780Z,1.00
2023-03-21T11:06:33.770Z,99.90
2023-03-21T11:09:06.437Z,99.90
2023-03-21T11:11:40.427Z,99.90
2023-03-21T11:14:23.769Z,99.90
2023-03-21T11:16:51.688Z,99.90
2023-03-21T11:19:38.693Z,99.90
2023-03-21T11:22:07.786Z,99.90
2023-03-21T11:24:36.894Z,99.90
2023-03-21T11:27:07.432Z,1.00
2023-03-21T11:29:41.117Z,99.90
2023-03-21T11:32:13.756Z,99.90
2023-03-21T11:34:53.445Z,99.90
2023-03-21T11:37:38.563Z,99.90
2023-03-21T11:40:28.486Z,99.90
2023-03-21T11:43:01.182Z,99.90
2023-03-21T11:45:29.406Z,99.90
2023-03-21T11:47:59.515Z,99.90
2023-03-21T11:50:39.909Z,1.00
2023-03-21T11:53:31.385Z,99.90
2023-03-21T11:56:20.888Z,99.90
2023-03-21T11:59:16.245Z,1.00
2023-03-21T12:02:06.285Z,99.90
2023-03-21T12:04:47.015Z,1.00
2023-03-21T12:07:32.522Z,1.00
2023-03-21T12:10:24.682Z,1.00
2023-03-21T12:12:54.948Z,1.00
2023-03-21T12:15:33.625Z,1.00
2023-03-21T12:18:21.662Z,1.00
2023-03-21T12:21:07.433Z,99.90
2023-03-21T12:24:06.988Z,99.90
2023-03-21T12:26:58.117Z,99.90
2023-03-21T12:29:37.354Z,99.90
2023-03-21T12:32:25.935Z,99.90
2023-03-21T12:35:07.734Z,1.00
2023-03-21T12:37:48.536Z,99.90
2023-03-21T12:40:55.398Z,1.00
2023-03-21T12:43:40.257Z,1.00
2023-03-21T12:46:24.129Z,99.90
2023-03-21T12:49:03.025Z,1.00
2023-03-21T12:51:34.912Z,1.00
2023-03-21T12:54:08.233Z,1.00
2023-03-21T12:57:03.888Z,1.00
2023-03-21T12:59:50.465Z,1.00
2023-03-21T13:02:32.392Z,1.00
2023-03-21T13:05:40.833Z,99.90
2023-03-21T13:08:11.922Z,1.00
2023-03-21T13:10:40.493Z,99.90
2023-03-21T13:13:28.876Z,99.90
2023-03-21T13:16:08.195Z,99.90
2023-03-21T13:18:47.211Z,99.90
2023-03-21T13:21:45.797Z,38.00
2023-03-21T13:24:32.691Z,12.50
2023-03-21T13:27:09.124Z,99.90
2023-03-21T13:29:44.556Z,99.90
2023-03-21T13:32:23.504Z,99.90
2023-03-21T13:35:05.143Z,1.00
2023-03-21T13:37:35.395Z,99.90
2023-03-21T13:40:19.838Z,99.90
2023-03-21T13:42:53.100Z,99.90
2023-03-21T13:45:33.418Z,5.40
2023-03-21T13:48:29.411Z,1.00
2023-03-21T13:51:04.302Z,1.00
2023-03-21T13:53:45.418Z,1.00
2023-03-21T13:56:12.274Z,1.00
2023-03-21T13:58:51.146Z,1.00
2023-03-21T14:01:38.537Z,1.00
2023-03-21T14:04:05.233Z,1.00
2023-03-21T14:06:36.274Z,1.00
2023-03-21T14:09:04.051Z,99.90
2023-03-21T14:11:32.462Z,99.90
2023-03-21T14:14:00.931Z,99.90
2023-03-21T14:16:28.742Z,99.90
2023-03-21T14:18:59.997Z,99.90
2023-03-21T14:21:30.546Z,99.90
2023-03-21T14:24:05.676Z,99.90
2023-03-21T14:26:36.340Z,99.90
2023-03-21T14:29:09.670Z,99.90
2023-03-21T14:31:47.967Z,99.90
2023-03-21T14:34:16.910Z,99.90
2023-03-21T14:36:51.675Z,99.90
2023-03-21T14:39:30.746Z,99.90
2023-03-21T14:42:05.189Z,99.90
2023-03-21T14:44:54.934Z,99.90
2023-03-21T14:47:25.620Z,99.90
2023-03-21T14:49:52.809Z,99.90
2023-03-21T14:52:32.178Z,99.90
2023-03-21T14:55:00.953Z,99.90
2023-03-21T14:57:31.341Z,99.90
2023-03-21T15:00:12.809Z,99.90
2023-03-21T15:02:41.686Z,99.90
2023-03-21T15:05:32.905Z,99.90
2023-03-21T15:08:11.879Z,99.90
2023-03-21T15:10:39.108Z,99.90
2023-03-21T15:13:16.984Z,99.90
2023-03-21T15:15:44.718Z,99.90
2023-03-21T15:18:17.576Z,99.90
2023-03-21T15:20:48.301Z,99.90
2023-03-21T15:23:38.295Z,99.90
2023-03-21T15:26:06.310Z,99.90
2023-03-21T15:28:34.988Z,99.90
2023-03-21T15:31:02.473Z,99.90
2023-03-21T15:33:29.929Z,99.90
2023-03-21T15:35:58.918Z,99.90
2023-03-21T15:38:34.413Z,99.90
2023-03-21T15:41:20.478Z,99.90
2023-03-21T15:43:47.412Z,99.90
2023-03-21T15:46:31.965Z,99.90
2023-03-21T15:49:16.685Z,99.90
2023-03-21T15:51:48.537Z,99.90
2023-03-21T15:54:24.736Z,99.90
2023-03-21T15:56:56.452Z,99.90
2023-03-21T15:59:27.510Z,99.90
2023-03-21T16:01:54.322Z,99.90
2023-03-21T16:04:23.602Z,99.90
2023-03-21T16:07:15.428Z,99.90
2023-03-21T16:09:44.508Z,99.90
2023-03-21T16:12:14.867Z,99.90
2023-03-21T16:14:42.876Z,99.90
2023-03-21T16:17:34.066Z,99.90
2023-03-21T16:20:01.055Z,99.90
2023-03-21T16:22:30.107Z,99.90
2023-03-21T16:24:56.861Z,99.90
2023-03-21T16:27:23.953Z,99.90
2023-03-21T16:29:51.043Z,99.90
2023-03-21T16:32:18.454Z,99.90
2023-03-21T16:34:46.484Z,99.90
2023-03-21T16:37:16.023Z,99.90
2023-03-21T16:39:43.513Z,99.90
2023-03-21T16:42:13.757Z,99.90
2023-03-21T16:44:40.719Z,99.90
2023-03-21T16:47:19.127Z,99.90
2023-03-21T16:49:46.348Z,99.90
2023-03-21T16:52:14.495Z,99.90
2023-03-21T16:54:42.808Z,99.90
2023-03-21T16:57:23.103Z,99.90
2023-03-21T16:59:50.767Z,99.90
2023-03-21T17:02:17.559Z,99.90
2023-03-21T17:04:44.673Z,99.90
2023-03-21T17:07:16.295Z,99.90
2023-03-21T17:09:46.890Z,99.90
2023-03-21T17:12:16.258Z,99.90
2023-03-21T17:14:44.544Z,99.90
2023-03-21T17:17:13.453Z,99.90
2023-03-21T17:19:40.578Z,99.90
2023-03-21T17:22:08.131Z,99.90
2023-03-21T17:24:36.231Z,99.90
2023-03-21T17:27:04.358Z,99.90
2023-03-21T17:29:31.564Z,99.90
2023-03-21T17:31:58.522Z,99.90
2023-03-21T17:34:25.987Z,99.90
2023-03-21T17:36:52.682Z,99.90
2023-03-21T17:39:26.696Z,99.90
2023-03-21T17:41:54.258Z,99.90
2023-03-21T17:44:21.789Z,99.90
2023-03-21T17:46:51.631Z,99.90
2023-03-21T17:49:19.091Z,99.90
2023-03-21T17:51:47.206Z,99.90
2023-03-21T17:54:14.046Z,99.90
2023-03-21T17:56:42.186Z,99.90
2023-03-21T17:59:12.802Z,99.90
2023-03-21T18:01:39.574Z,99.90
2023-03-21T18:04:06.372Z,99.90
2023-03-21T18:06:34.605Z,99.90
2023-03-21T18:09:06.934Z,99.90
2023-03-21T18:11:34.114Z,99.90
2023-03-21T18:14:14.989Z,99.90
2023-03-21T18:16:43.132Z,99.90
2023-03-21T18:19:12.902Z,99.90
2023-03-21T18:21:46.470Z,99.90
2023-03-21T18:24:14.121Z,99.90
2023-03-21T18:26:41.764Z,10.80
2023-03-21T18:30:08.021Z,1.00
2023-03-21T18:32:06.456Z,1.00
2023-03-21T18:34:36.031Z,1.00
2023-03-21T18:37:04.154Z,1.00
2023-03-21T18:39:33.083Z,1.00
2023-03-21T18:42:03.703Z,1.00
2023-03-21T18:44:38.744Z,1.00
2023-03-21T18:47:08.872Z,1.00
2023-03-21T18:50:12.150Z,1.00
2023-03-21T18:52:22.850Z,1.00
2023-03-21T18:54:49.925Z,1.00
2023-03-21T18:57:35.831Z,1.00
2023-03-21T19:00:12.715Z,1.00
2023-03-21T19:02:46.305Z,1.00
2023-03-21T19:05:16.021Z,1.00
2023-03-21T19:07:42.904Z,1.00
2023-03-21T19:10:19.618Z,1.00
2023-03-21T19:12:52.555Z,1.00
2023-03-21T19:15:21.714Z,1.00
2023-03-21T19:20:38.432Z,1.00
2023-03-21T19:23:08.680Z,1.00
2023-03-21T19:25:36.357Z,1.00
2023-03-21T19:28:03.832Z,1.00
2023-03-21T19:30:30.746Z,1.00
2023-03-21T19:32:57.487Z,1.00
2023-03-21T19:35:24.232Z,1.00
2023-03-21T19:37:51.347Z,1.00
2023-03-21T19:40:19.807Z,1.00
2023-03-21T19:42:46.586Z,1.00
2023-03-21T19:45:13.417Z,1.00
2023-03-21T19:47:40.228Z,1.00
2023-03-21T19:52:56.141Z,1.00
2023-03-21T19:55:23.178Z,1.00
2023-03-21T19:57:49.931Z,1.00
2023-03-21T20:00:18.682Z,1.00
2023-03-21T20:02:47.022Z,1.00
2023-03-21T20:05:16.204Z,1.00
2023-03-21T20:07:42.919Z,1.00
2023-03-21T20:10:11.270Z,1.00
2023-03-21T20:12:38.287Z,1.00
2023-03-21T20:15:16.637Z,1.00
2023-03-21T20:17:44.337Z,1.00
2023-03-21T20:20:17.447Z,1.00
2023-03-21T20:23:06.178Z,1.00
2023-03-21T20:25:34.274Z,1.00
2023-03-21T20:28:15.178Z,1.00
2023-03-21T20:30:53.162Z,1.00
2023-03-21T20:33:20.331Z,1.00
2023-03-21T20:38:35.988Z,1.00
2023-03-21T20:41:05.485Z,1.00
2023-03-21T20:46:20.842Z,1.00
2023-03-21T20:48:49.795Z,1.00
2023-03-21T20:52:15.196Z,1.00
2023-03-21T20:54:04.715Z,1.00
2023-03-21T20:56:31.552Z,1.00
2023-03-21T20:59:14.616Z,1.00
2023-03-21T21:01:45.345Z,1.00
2023-03-21T21:04:15.052Z,1.00
2023-03-21T21:06:42.072Z,1.00
2023-03-21T21:09:09.327Z,1.00
2023-03-21T21:14:22.926Z,1.00
2023-03-21T21:16:50.573Z,1.00
2023-03-21T21:19:21.733Z,1.00
2023-03-21T21:21:49.759Z,1.00
2023-03-21T21:24:16.482Z,1.00
2023-03-21T21:26:46.319Z,1.00
2023-03-21T21:29:16.806Z,1.00
2023-03-21T21:31:51.961Z,1.00
2023-03-21T21:34:19.810Z,1.00
2023-03-21T21:36:46.960Z,1.00
2023-03-21T21:39:15.612Z,1.00
2023-03-21T21:41:43.076Z,1.00
2023-03-21T21:44:09.838Z,1.00
2023-03-21T21:46:36.793Z,1.00
2023-03-21T21:49:04.376Z,1.00
2023-03-21T21:51:34.035Z,1.00
2023-03-21T21:54:03.561Z,1.00
2023-03-21T21:56:32.717Z,1.00
2023-03-21T21:59:03.139Z,1.00
2023-03-21T22:01:30.998Z,1.00
2023-03-21T22:04:06.155Z,1.00
2023-03-21T22:06:34.309Z,1.00
2023-03-21T22:09:02.305Z,1.00
2023-03-21T22:11:29.160Z,1.00
2023-03-21T22:13:56.257Z,1.00
2023-03-21T22:16:23.242Z,1.00
2023-03-21T22:18:49.940Z,1.00
2023-03-21T22:21:16.683Z,1.00
2023-03-21T22:23:43.402Z,1.00
2023-03-21T22:26:10.739Z,1.00
2023-03-21T22:28:40.498Z,1.00
2023-03-21T22:31:12.896Z,1.00
2023-03-21T22:33:39.669Z,1.00
2023-03-21T22:36:06.807Z,1.00
2023-03-21T22:38:34.545Z,1.00
2023-03-21T22:41:02.896Z,1.00
2023-03-21T22:43:33.979Z,1.00
2023-03-21T22:46:02.441Z,1.00
2023-03-21T22:48:30.255Z,1.00
2023-03-21T22:50:58.013Z,1.00
2023-03-21T22:53:25.365Z,1.00
2023-03-21T22:55:52.162Z,1.00
2023-03-21T22:58:19.357Z,1.00
2023-03-21T23:00:47.247Z,1.00
2023-03-21T23:03:14.652Z,1.00
2023-03-21T23:05:42.078Z,1.00
2023-03-21T23:08:09.155Z,1.00
2023-03-21T23:10:40.440Z,1.00
2023-03-21T23:13:07.400Z,1.00
2023-03-21T23:15:34.356Z,1.00
2023-03-21T23:18:01.153Z,1.00
2023-03-21T23:20:28.198Z,1.00
2023-03-21T23:22:55.818Z,1.00
2023-03-21T23:25:24.838Z,1.00
2023-03-21T23:27:51.648Z,1.00
2023-03-21T23:30:18.911Z,1.00
2023-03-21T23:32:45.712Z,1.00
2023-03-21T23:35:12.421Z,2.00
2023-03-21T23:37:42.426Z,5.90
2023-03-21T23:40:10.373Z,14.30
2023-03-21T23:42:37.172Z,18.70
2023-03-21T23:45:04.562Z,28.10
2023-03-21T23:47:31.335Z,41.70
2023-03-21T23:49:58.351Z,65.20
2023-03-21T23:52:25.253Z,65.00
2023-03-21T23:54:52.050Z,82.70
2023-03-21T23:57:18.963Z,86.70
2023-03-21T23:59:47.107Z,94.30
